Terminal Aerodrome Forecast
Issued by NWS

Home | Current Version | Previous Version | Text Only | Print | Product List | Glossary On
Versions: 1 2 3 4 5 6 7 8 9 10 11 12 13 14 15 16 17 18 19 20 21 22 23 24 25 26 27 28 29 30 31 32 33 34 35 36 37 38 39
000
FTUS43 KDVN 211200 AAA
TAFBRL
TAF AMD
KBRL 211200Z 2112/2212 14004KT P6SM BKN022 OVC030
     FM211400 13006KT 4SM BR OVC012
     FM211600 15006KT 2SM BR OVC008
     FM212200 13007KT 1/2SM -DZ FG OVC004
     FM220400 14009KT 1SM -RA BR OVC004=

USA.gov is the U.S. government's official web portal to all federal, state and local government web resources and services.